Time;durP1;ratioP1;P1;durP2;ratioP2;P2;SDS_P1;SDS_P2;PMS_P1;PMS_P2;Temp;Humidity;BMP_temperature;BMP_pressure;BME280_temperature;BME280_humidity;BME280_pressure;Samples;Min_cycle;Max_cycle;Signal;HPM_P1;HPM_P2
2023/08/24 00:01:59;;;;;;;27.98;16.77;;;;;;;-143.21;61.90;71239.41;5029360;28;20207;-78
2023/08/24 00:04:27;;;;;;;23.50;17.50;;;;;;;-143.21;61.56;71235.44;5033946;28;20209;-78
2023/08/24 00:06:54;;;;;;;25.35;18.00;;;;;;;-143.21;61.03;71229.50;5033931;28;20245;-78
2023/08/24 00:09:22;;;;;;;28.50;17.05;;;;;;;-143.21;60.41;71217.59;5037501;28;20206;-78
2023/08/24 00:11:48;;;;;;;35.03;16.77;;;;;;;-143.21;60.38;71217.59;5030443;28;20293;-78
2023/08/24 00:14:15;;;;;;;28.70;16.95;;;;;;;-143.21;60.82;71233.47;5037256;28;20197;-78
2023/08/24 00:16:42;;;;;;;28.58;16.88;;;;;;;-143.21;61.78;71237.44;5036204;28;20217;-79
2023/08/24 00:19:09;;;;;;;26.08;16.83;;;;;;;-143.21;61.94;71237.44;5030608;28;20242;-78
2023/08/24 00:21:37;;;;;;;27.85;16.80;;;;;;;-143.21;62.45;71243.38;5029514;28;20813;-78
2023/08/24 00:24:04;;;;;;;24.05;16.25;;;;;;;-143.21;62.07;71243.38;5027439;28;20896;-78
2023/08/24 00:26:31;;;;;;;24.40;15.90;;;;;;;-143.21;61.86;71247.34;5032814;28;20217;-79
2023/08/24 00:28:58;;;;;;;27.95;18.75;;;;;;;-143.21;62.80;71257.25;5028871;28;20210;-79
2023/08/24 00:31:25;;;;;;;28.45;19.45;;;;;;;-143.21;63.56;71263.22;5030053;28;20206;-78
2023/08/24 00:33:51;;;;;;;35.40;20.35;;;;;;;-143.21;63.53;71269.16;5033011;28;20265;-78
2023/08/24 00:36:18;;;;;;;32.22;21.02;;;;;;;-143.21;63.46;71275.09;5037418;28;20211;-79
2023/08/24 00:38:50;;;;;;;30.80;21.05;;;;;;;-143.21;63.43;71279.06;5036816;28;20242;-78
2023/08/24 00:41:17;;;;;;;30.92;21.05;;;;;;;-143.21;63.28;71288.97;5036242;28;20286;-78
2023/08/24 00:43:44;;;;;;;31.30;21.55;;;;;;;-143.21;63.45;71290.97;5030750;28;20206;-77
2023/08/24 00:46:11;;;;;;;31.77;20.65;;;;;;;-143.21;62.91;71273.13;5030232;28;20210;-77
2023/08/24 00:48:38;;;;;;;28.48;19.98;;;;;;;-143.21;62.76;71263.22;5033991;28;20205;-77
2023/08/24 00:51:05;;;;;;;32.33;21.92;;;;;;;-143.21;63.03;71271.13;5035558;28;20206;-77
2023/08/24 00:53:33;;;;;;;27.73;20.90;;;;;;;-143.21;63.04;71283.03;5034792;28;20233;-77
2023/08/24 00:56:02;;;;;;;31.88;19.88;;;;;;;-143.21;63.43;71287.00;5035128;28;20218;-77
2023/08/24 00:58:29;;;;;;;25.35;19.33;;;;;;;-143.21;63.71;71300.88;5035628;28;20222;-77
2023/08/24 01:00:57;;;;;;;28.52;19.42;;;;;;;-143.21;64.22;71308.81;5030008;28;20195;-77
2023/08/24 01:03:25;;;;;;;32.08;19.17;;;;;;;-143.21;64.32;71318.72;5037347;28;20669;-77
2023/08/24 01:05:52;;;;;;;26.95;19.38;;;;;;;-143.21;64.51;71320.69;5033148;28;20678;-78
2023/08/24 01:08:20;;;;;;;23.05;17.73;;;;;;;-143.21;63.91;71324.66;5038580;28;21484;-77
2023/08/24 01:11:00;;;;;;;28.15;18.40;;;;;;;-143.21;64.49;71322.69;5031196;28;20563;-78
2023/08/24 01:13:45;;;;;;;28.65;18.35;;;;;;;-143.21;64.62;71326.66;5036679;28;20202;-78
2023/08/24 01:16:17;;;;;;;30.10;17.33;;;;;;;-143.21;64.46;71328.63;5029366;28;20214;-78
2023/08/24 01:18:45;;;;;;;25.33;17.42;;;;;;;-143.21;64.51;71324.66;5027147;28;20239;-78
2023/08/24 01:21:14;;;;;;;25.30;16.25;;;;;;;-143.21;64.46;71314.75;5028276;28;20210;-78
2023/08/24 01:23:48;;;;;;;22.10;15.68;;;;;;;-143.21;63.36;71294.94;5027053;28;20206;-79
2023/08/24 01:26:19;;;;;;;21.92;15.27;;;;;;;-143.21;62.84;71288.97;5032190;28;20205;-78
2023/08/24 01:28:47;;;;;;;23.15;15.65;;;;;;;-143.21;63.44;71308.81;5028954;28;20209;-78
2023/08/24 01:31:15;;;;;;;23.70;16.15;;;;;;;-143.21;64.10;71316.75;5027128;28;20590;-77
2023/08/24 01:33:42;;;;;;;25.40;16.52;;;;;;;-143.21;64.26;71324.66;5028401;28;20207;-78
2023/08/24 01:36:10;;;;;;;22.27;16.15;;;;;;;-143.21;64.23;71326.66;5030035;28;20293;-78
2023/08/24 01:38:37;;;;;;;25.00;16.27;;;;;;;-143.21;64.60;71340.53;5027972;28;20235;-78
2023/08/24 01:41:12;;;;;;;23.73;15.52;;;;;;;-143.21;64.64;71338.53;5030711;28;20211;-78
2023/08/24 01:43:44;;;;;;;27.08;15.63;;;;;;;-143.21;64.48;71332.59;5039840;28;20652;-78
2023/08/24 01:46:14;;;;;;;22.23;15.00;;;;;;;-143.21;63.93;71330.63;5031353;28;20218;-78
2023/08/24 01:48:41;;;;;;;17.20;14.45;;;;;;;-143.21;63.52;71330.63;5030125;28;20297;-78
2023/08/24 01:51:10;;;;;;;20.40;15.48;;;;;;;-143.21;63.58;71322.69;5031213;28;20213;-78
2023/08/24 01:53:37;;;;;;;19.52;15.15;;;;;;;-143.21;63.59;71328.63;5032050;28;20226;-78
2023/08/24 01:56:09;;;;;;;20.15;14.88;;;;;;;-143.21;63.68;71326.66;5029353;28;20232;-78
2023/08/24 01:58:36;;;;;;;19.50;14.30;;;;;;;-143.21;63.57;71322.69;5031215;28;20321;-78
2023/08/24 02:01:05;;;;;;;24.00;15.07;;;;;;;-143.21;62.98;71314.75;5031389;28;20293;-78
2023/08/24 02:03:32;;;;;;;19.20;15.10;;;;;;;-143.21;63.07;71314.75;5032670;28;20221;-78
2023/08/24 02:05:59;;;;;;;18.42;14.75;;;;;;;-143.21;63.67;71322.69;5029663;28;20295;-78
2023/08/24 02:08:26;;;;;;;21.27;14.57;;;;;;;-143.21;64.09;71342.50;5026842;28;20203;-78
2023/08/24 02:10:53;;;;;;;19.63;14.77;;;;;;;-143.21;64.72;71358.38;5030413;28;20210;-78
2023/08/24 02:13:20;;;;;;;18.50;15.35;;;;;;;-143.21;65.14;71374.22;5033252;28;20703;-79
2023/08/24 02:15:46;;;;;;;17.70;14.00;;;;;;;-143.21;65.49;71380.19;5030841;28;20203;-79
2023/08/24 02:18:15;;;;;;;22.73;15.30;;;;;;;-143.21;65.72;71392.06;5030249;28;20238;-79
2023/08/24 02:20:42;;;;;;;20.27;14.80;;;;;;;-143.21;65.59;71392.06;5027417;28;20203;-79
2023/08/24 02:23:09;;;;;;;23.13;15.80;;;;;;;-143.21;65.69;71403.97;5033599;28;20206;-79
2023/08/24 02:25:35;;;;;;;19.63;14.95;;;;;;;-143.21;65.82;71405.94;5030930;28;20672;-79
2023/08/24 02:28:02;;;;;;;18.38;14.15;;;;;;;-143.21;65.78;71402.00;5032866;28;20210;-79
2023/08/24 02:30:29;;;;;;;18.77;14.20;;;;;;;-143.21;65.60;71402.00;5030807;28;20203;-80
2023/08/24 02:32:56;;;;;;;21.98;15.00;;;;;;;-143.21;65.62;71407.94;5031108;28;20207;-83
2023/08/24 02:35:24;;;;;;;17.85;14.65;;;;;;;-143.21;65.69;71402.00;5029685;28;20221;-83
2023/08/24 02:37:51;;;;;;;18.67;14.57;;;;;;;-143.21;65.30;71386.13;5032034;28;20210;-83
2023/08/24 02:40:18;;;;;;;20.67;14.27;;;;;;;-143.21;64.67;71392.06;5027641;28;20657;-83
2023/08/24 02:42:45;;;;;;;27.13;16.20;;;;;;;-143.21;65.51;71423.78;5028093;28;20206;-83
2023/08/24 02:45:11;;;;;;;26.55;18.27;;;;;;;-143.21;66.69;71453.53;5024578;28;20206;-83
2023/08/24 02:47:38;;;;;;;34.25;22.95;;;;;;;-143.21;67.36;71463.44;5027219;28;20627;-83
2023/08/24 02:50:07;;;;;;;44.03;28.92;;;;;;;-143.21;67.73;71473.38;5026616;28;20206;-83
2023/08/24 02:52:35;;;;;;;51.97;33.15;;;;;;;-143.21;68.05;71471.38;5027520;28;20920;-84
2023/08/24 02:55:02;;;;;;;36.92;23.58;;;;;;;-143.21;67.87;71449.56;5026635;28;20210;-83
2023/08/24 02:57:29;;;;;;;30.60;21.27;;;;;;;-143.21;67.41;71441.63;5027038;28;20213;-84
2023/08/24 02:59:56;;;;;;;29.73;21.77;;;;;;;-143.21;67.17;71431.72;5026628;28;21272;-84
2023/08/24 03:02:22;;;;;;;36.65;23.48;;;;;;;-143.21;66.88;71421.81;5027141;28;20203;-83
2023/08/24 03:04:49;;;;;;;35.72;25.83;;;;;;;-143.21;66.69;71419.84;5028013;28;20680;-83
2023/08/24 03:07:16;;;;;;;38.53;27.08;;;;;;;-143.21;66.45;71415.88;5028068;28;20605;-84
2023/08/24 03:09:44;;;;;;;60.00;37.17;;;;;;;-143.21;66.34;71413.88;5026640;28;20198;-84
2023/08/24 03:12:11;;;;;;;32.10;22.30;;;;;;;-143.21;66.03;71409.91;5029337;28;20215;-84
2023/08/24 03:14:38;;;;;;;27.98;20.13;;;;;;;-143.21;66.03;71409.91;5027652;28;20237;-84
2023/08/24 03:17:05;;;;;;;27.20;18.08;;;;;;;-143.21;65.46;71398.03;5026622;28;20210;-83
2023/08/24 03:19:32;;;;;;;26.10;18.77;;;;;;;-143.21;65.43;71396.03;5035996;28;20242;-85
2023/08/24 03:21:59;;;;;;;28.83;17.90;;;;;;;-143.21;65.40;71400.00;5026543;28;20221;-85
2023/08/24 03:24:25;;;;;;;22.42;15.93;;;;;;;-143.21;65.69;71409.91;5031253;28;20202;-86
2023/08/24 03:26:54;;;;;;;26.02;16.75;;;;;;;-143.21;66.12;71431.72;5034406;28;20298;-84
2023/08/24 03:29:21;;;;;;;20.48;15.50;;;;;;;-143.21;66.52;71443.63;5032116;28;20206;-84
2023/08/24 03:31:48;;;;;;;21.35;16.20;;;;;;;-143.21;66.93;71451.56;5034882;28;20234;-84
2023/08/24 03:34:14;;;;;;;21.63;15.07;;;;;;;-143.21;67.06;71461.47;5036006;28;20230;-84
2023/08/24 03:36:41;;;;;;;23.52;15.80;;;;;;;-143.21;67.14;71463.44;5039593;28;20198;-84
2023/08/24 03:39:08;;;;;;;23.27;15.02;;;;;;;-143.21;67.25;71473.38;5035656;28;20700;-84
2023/08/24 03:41:35;;;;;;;19.30;16.08;;;;;;;-143.21;67.23;71477.34;5039879;28;20207;-83
2023/08/24 03:44:03;;;;;;;23.02;15.45;;;;;;;-143.21;67.24;71499.13;5025299;28;20211;-83
2023/08/24 03:46:31;;;;;;;21.77;16.40;;;;;;;-143.21;67.93;71513.03;5029206;28;20244;-84
2023/08/24 03:48:58;;;;;;;31.33;20.80;;;;;;;-143.21;68.10;71526.91;5030979;28;20249;-83
2023/08/24 03:51:25;;;;;;;69.50;39.80;;;;;;;-143.21;68.00;71526.91;5022759;28;20211;-83
2023/08/24 03:53:52;;;;;;;48.22;29.45;;;;;;;-143.21;67.75;71526.91;5034739;28;20237;-82
2023/08/24 03:56:19;;;;;;;30.50;19.65;;;;;;;-143.21;67.03;71520.94;5021380;28;20219;-83
2023/08/24 03:58:45;;;;;;;24.17;18.45;;;;;;;-143.21;67.20;71528.88;5024782;28;20693;-82
2023/08/24 04:01:14;;;;;;;22.98;17.25;;;;;;;-143.21;67.44;71534.81;5034625;28;20665;-84
2023/08/24 04:03:40;;;;;;;29.40;17.50;;;;;;;-143.21;67.71;71540.78;5036619;28;20199;-84
2023/08/24 04:06:07;;;;;;;30.58;17.95;;;;;;;-143.21;67.55;71536.81;5031392;28;20215;-84
2023/08/24 04:08:35;;;;;;;25.00;17.48;;;;;;;-143.21;67.53;71534.81;5033088;28;20887;-85
2023/08/24 04:11:02;;;;;;;24.48;16.92;;;;;;;-143.21;67.48;71542.75;5032411;28;20209;-85
2023/08/24 04:13:28;;;;;;;22.40;16.52;;;;;;;-143.21;67.55;71540.78;5030175;28;20199;-85
2023/08/24 04:15:55;;;;;;;25.98;16.05;;;;;;;-143.21;67.40;71532.84;5030871;28;20234;-85
2023/08/24 04:18:23;;;;;;;21.75;17.17;;;;;;;-143.21;67.33;71526.91;5025542;28;20254;-84
2023/08/24 04:20:53;;;;;;;20.98;17.02;;;;;;;-143.21;67.29;71516.97;5021135;28;20225;-84
2023/08/24 04:23:25;;;;;;;24.05;16.75;;;;;;;-143.21;67.15;71516.97;5021443;28;20210;-84
2023/08/24 04:25:51;;;;;;;23.90;17.00;;;;;;;-143.21;67.57;71524.91;5022649;28;20263;-86
2023/08/24 04:28:18;;;;;;;21.65;16.90;;;;;;;-143.21;67.53;71522.94;5022337;28;20211;-86
2023/08/24 04:30:51;;;;;;;24.48;16.73;;;;;;;-143.21;67.57;71528.88;5020825;28;20657;-87
2023/08/24 04:33:18;;;;;;;23.42;16.38;;;;;;;-143.21;67.53;71528.88;5023496;28;20203;-87
2023/08/24 04:35:48;;;;;;;36.88;17.05;;;;;;;-143.21;67.48;71515.00;5020375;28;20688;-87
2023/08/24 04:38:15;;;;;;;23.45;15.23;;;;;;;-143.21;66.96;71505.09;5023751;28;20213;-82
2023/08/24 04:40:49;;;;;;;29.52;16.73;;;;;;;-143.21;66.85;71503.09;5014506;28;20609;-81
2023/08/24 04:43:16;;;;;;;21.55;15.85;;;;;;;-143.21;66.90;71511.03;5020442;28;20256;-82
2023/08/24 04:45:43;;;;;;;21.73;16.40;;;;;;;-143.21;67.42;71509.06;5013954;28;20210;-82
2023/08/24 04:48:10;;;;;;;26.38;16.35;;;;;;;-143.21;67.45;71511.03;5020347;28;20198;-81
2023/08/24 04:50:37;;;;;;;25.23;16.17;;;;;;;-143.21;66.76;71479.31;5016267;28;20576;-81
2023/08/24 04:53:06;;;;;;;22.02;15.85;;;;;;;-143.21;65.08;71463.44;5023770;28;20215;-80
2023/08/24 04:55:33;;;;;;;23.33;15.77;;;;;;;-143.21;65.85;71487.25;5022877;28;20206;-79
2023/08/24 04:57:59;;;;;;;26.50;16.20;;;;;;;-143.21;66.32;71503.09;5019226;28;20214;-79
2023/08/24 05:00:26;;;;;;;24.63;16.80;;;;;;;-143.21;66.55;71503.09;5019611;28;20709;-80
2023/08/24 05:02:53;;;;;;;25.08;17.75;;;;;;;-143.21;66.49;71501.13;5019914;28;20217;-80
2023/08/24 05:05:20;;;;;;;38.67;22.05;;;;;;;-143.21;66.87;71522.94;5020910;28;20211;-82
2023/08/24 05:07:47;;;;;;;74.80;38.05;;;;;;;-143.21;67.00;71524.91;5019506;28;20218;-83
2023/08/24 05:10:15;;;;;;;89.00;44.38;;;;;;;-143.21;67.05;71516.97;5025827;28;20210;-84
2023/08/24 05:12:42;;;;;;;75.80;35.58;;;;;;;-143.21;66.59;71487.25;5029851;28;20677;-83
2023/08/24 05:15:10;;;;;;;77.68;37.25;;;;;;;-143.21;65.62;71443.63;5016773;28;20210;-80
2023/08/24 05:17:37;;;;;;;66.65;33.60;;;;;;;-143.21;64.98;71423.78;5018164;28;20210;-82
2023/08/24 05:20:04;;;;;;;49.50;26.25;;;;;;;-143.21;64.75;71427.75;5027976;28;20226;-83
2023/08/24 05:22:31;;;;;;;35.03;22.60;;;;;;;-143.21;64.83;71431.72;5029033;28;20286;-83
2023/08/24 05:24:58;;;;;;;33.08;22.05;;;;;;;-143.21;65.43;71437.69;5029819;28;20202;-82
2023/08/24 05:27:26;;;;;;;25.98;19.02;;;;;;;-143.21;65.27;71447.59;5028506;28;20198;-83
2023/08/24 05:29:53;;;;;;;26.95;18.48;;;;;;;-143.21;65.51;71451.56;5027076;28;20201;-82
2023/08/24 05:32:20;;;;;;;25.25;17.88;;;;;;;-143.21;65.43;71445.59;5030988;28;20199;-83
2023/08/24 05:34:47;;;;;;;29.13;19.50;;;;;;;-143.21;65.36;71451.56;5026758;28;20199;-81
2023/08/24 05:37:21;;;;;;;25.20;18.05;;;;;;;-143.21;65.32;71431.72;5032805;28;20207;-82
2023/08/24 05:39:47;;;;;;;31.65;17.40;;;;;;;-143.21;64.38;71400.00;5026603;28;20214;-82
2023/08/24 05:42:14;;;;;;;29.60;17.23;;;;;;;-143.21;64.11;71392.06;5028224;28;20238;-82
2023/08/24 05:44:42;;;;;;;29.02;17.38;;;;;;;-143.21;64.02;71400.00;5027246;28;20230;-84
2023/08/24 05:47:09;;;;;;;26.77;17.67;;;;;;;-143.21;64.29;71407.94;5027600;28;20202;-84
2023/08/24 05:49:36;;;;;;;21.58;17.23;;;;;;;-143.21;64.39;71421.81;5028386;28;20678;-84
2023/08/24 05:52:03;;;;;;;26.27;18.35;;;;;;;-143.21;63.63;71417.84;5027193;28;20213;-84
2023/08/24 05:54:30;;;;;;;27.13;17.98;;;;;;;-143.21;64.30;71429.75;5027800;28;20214;-84
2023/08/24 05:57:00;;;;;;;25.00;16.70;;;;;;;-143.21;64.41;71427.75;5031976;28;20203;-84
2023/08/24 05:59:27;;;;;;;26.80;17.30;;;;;;;-143.21;63.63;71392.06;5027614;28;20206;-83
2023/08/24 06:01:55;;;;;;;29.02;17.35;;;;;;;-143.21;63.01;71370.28;5026890;28;20206;-84
2023/08/24 06:04:22;;;;;;;19.67;16.73;;;;;;;-143.21;62.70;71384.16;5029715;28;20218;-84
2023/08/24 06:06:49;;;;;;;22.92;16.95;;;;;;;-143.21;62.83;71403.97;5028095;28;20215;-85
2023/08/24 06:09:16;;;;;;;22.23;16.38;;;;;;;-143.21;62.79;71398.03;5028953;28;20201;-85
2023/08/24 06:11:42;;;;;;;20.13;16.17;;;;;;;-143.21;62.14;71390.09;5030980;28;20202;-84
2023/08/24 06:14:09;;;;;;;20.02;16.02;;;;;;;-143.21;62.23;71392.06;5033264;28;21108;-85
2023/08/24 06:16:36;;;;;;;20.50;15.95;;;;;;;-143.21;62.00;71388.09;5026857;28;20214;-85
2023/08/24 06:19:04;;;;;;;24.00;16.77;;;;;;;-143.21;62.01;71394.06;5032902;28;20234;-85
2023/08/24 06:21:31;;;;;;;29.60;16.63;;;;;;;-143.21;61.94;71378.19;5037859;28;20230;-85
2023/08/24 06:24:00;;;;;;;23.65;17.48;;;;;;;-143.21;61.93;71364.31;5038593;28;20206;-84
2023/08/24 06:26:27;;;;;;;25.77;17.83;;;;;;;-143.21;61.61;71354.41;5041189;28;20202;-84
2023/08/24 06:28:55;;;;;;;24.63;17.77;;;;;;;-143.21;61.82;71344.50;5041228;28;20212;-85
2023/08/24 06:31:22;;;;;;;29.15;18.30;;;;;;;-143.21;61.95;71338.53;5045449;28;20587;-85
2023/08/24 06:33:50;;;;;;;29.77;18.90;;;;;;;-143.21;61.60;71328.63;5038144;28;20210;-84
2023/08/24 06:36:19;;;;;;;25.05;18.20;;;;;;;-143.21;61.94;71320.69;5039847;28;20202;-83
2023/08/24 06:38:46;;;;;;;38.13;21.83;;;;;;;-143.21;61.28;71314.75;5042816;28;20212;-84
2023/08/24 06:41:13;;;;;;;35.38;21.65;;;;;;;-143.21;61.55;71316.75;5045039;28;20229;-85
2023/08/24 06:43:40;;;;;;;32.42;19.35;;;;;;;-143.21;60.94;71306.81;5045286;28;20206;-86
2023/08/24 06:46:08;;;;;;;27.15;17.95;;;;;;;-143.21;60.76;71306.81;5045372;28;20292;-83
2023/08/24 06:48:35;;;;;;;29.13;19.08;;;;;;;-143.21;61.29;71302.84;5041091;28;20213;-84
2023/08/24 06:51:02;;;;;;;27.88;20.05;;;;;;;-143.21;60.83;71271.13;5043432;28;20210;-83
2023/08/24 06:53:30;;;;;;;29.70;19.42;;;;;;;-143.21;60.00;71237.44;5046078;28;20194;-85
2023/08/24 06:55:57;;;;;;;27.63;19.27;;;;;;;-143.21;59.72;71215.63;5040348;28;20213;-84
2023/08/24 06:58:24;;;;;;;23.48;16.80;;;;;;;-143.21;58.66;71195.81;5034164;28;20587;-84
2023/08/24 07:00:51;;;;;;;26.35;17.33;;;;;;;-143.21;58.34;71191.84;5044681;28;20218;-84
2023/08/24 07:03:18;;;;;;;24.38;16.52;;;;;;;-143.21;58.37;71185.88;5041840;28;20210;-84
2023/08/24 07:05:47;;;;;;;23.92;17.00;;;;;;;-143.21;58.64;71172.00;5046748;28;20198;-83
2023/08/24 07:08:14;;;;;;;24.45;16.85;;;;;;;-143.21;58.44;71164.09;5050950;28;20289;-83
2023/08/24 07:10:43;;;;;;;25.58;17.95;;;;;;;-143.21;57.82;71152.19;5050589;28;20285;-85
2023/08/24 07:13:10;;;;;;;20.83;16.80;;;;;;;-143.21;57.69;71140.28;5048249;28;20206;-84
2023/08/24 07:15:37;;;;;;;27.65;17.55;;;;;;;-143.21;56.55;71126.41;5054206;28;20206;-88
2023/08/24 07:18:07;;;;;;;26.38;16.88;;;;;;;-143.21;56.21;71118.50;5048221;28;20249;-86
2023/08/24 07:20:34;;;;;;;20.13;15.18;;;;;;;-143.21;54.96;71102.63;5040187;28;20233;-85
2023/08/24 07:23:01;;;;;;;19.38;14.95;;;;;;;-143.21;55.24;71106.59;5037554;28;21092;-83
2023/08/24 07:25:28;;;;;;;23.10;15.70;;;;;;;-143.21;55.16;71094.69;5035744;28;20260;-83
2023/08/24 07:27:58;;;;;;;23.88;14.07;;;;;;;-143.21;55.46;71078.84;5039716;28;20234;-81
2023/08/24 07:30:26;;;;;;;18.67;14.20;;;;;;;-143.21;54.93;71053.06;5035780;28;20315;-82
2023/08/24 07:32:52;;;;;;;20.88;14.93;;;;;;;-143.21;54.34;71019.38;5037560;28;20637;-82
2023/08/24 07:35:20;;;;;;;19.95;14.63;;;;;;;-143.21;54.06;70991.63;5036840;28;20210;-82
2023/08/24 07:37:47;;;;;;;19.10;13.82;;;;;;;-143.21;53.88;70979.72;5040722;28;20221;-80
2023/08/24 07:40:15;;;;;;;20.02;13.93;;;;;;;-143.21;53.01;70975.75;5036373;28;20226;-86
2023/08/24 07:42:45;;;;;;;20.67;13.38;;;;;;;-143.21;53.12;70975.75;5047785;28;20823;-85
2023/08/24 07:45:14;;;;;;;20.77;14.80;;;;;;;-143.21;52.75;70967.81;5050108;28;20234;-81
2023/08/24 07:47:41;;;;;;;26.17;14.02;;;;;;;-143.21;51.77;70944.03;5061057;28;20185;-85
2023/08/24 07:50:09;;;;;;;20.67;14.65;;;;;;;-143.21;52.13;70959.91;5047224;28;20203;-86
2023/08/24 07:52:37;;;;;;;22.98;14.57;;;;;;;-143.21;52.57;70949.97;5035477;28;20213;-85
2023/08/24 07:55:11;;;;;;;17.23;13.65;;;;;;;-143.21;52.21;70944.03;5051196;28;20194;-86
2023/08/24 07:57:40;;;;;;;23.65;15.55;;;;;;;-143.21;51.88;70928.19;5039398;28;20294;-86
2023/08/24 08:00:13;;;;;;;18.65;13.68;;;;;;;-143.21;51.49;70910.34;5038819;28;20266;-84
2023/08/24 08:02:41;;;;;;;16.85;13.23;;;;;;;-143.21;51.24;70912.31;5043067;28;20257;-83
2023/08/24 08:05:10;;;;;;;23.63;13.13;;;;;;;-143.21;50.46;70900.41;5047779;28;20203;-85
2023/08/24 08:07:37;;;;;;;18.20;12.70;;;;;;;-143.21;50.15;70890.50;5041694;28;20234;-85
2023/08/24 08:10:06;;;;;;;20.17;12.65;;;;;;;-143.21;49.10;70870.69;5037002;28;20209;-86
2023/08/24 08:12:32;;;;;;;23.80;13.75;;;;;;;-143.21;48.76;70872.66;5036655;28;20198;-84
2023/08/24 08:14:59;;;;;;;17.50;13.63;;;;;;;-143.21;48.94;70860.78;5036818;28;20661;-86
2023/08/24 08:17:27;;;;;;;17.75;13.05;;;;;;;-143.21;48.92;70852.84;5037398;28;20190;-86
2023/08/24 08:19:57;;;;;;;18.45;14.05;;;;;;;-143.21;48.79;70846.91;5056418;28;20280;-86
2023/08/24 08:22:25;;;;;;;19.63;13.55;;;;;;;-143.21;49.13;70829.06;5073712;28;20650;-87
2023/08/24 08:24:53;;;;;;;17.42;13.43;;;;;;;-143.21;48.66;70817.16;5064366;28;20210;-85
2023/08/24 08:27:21;;;;;;;18.02;12.80;;;;;;;-143.21;48.52;70801.31;5055396;28;20214;-85
2023/08/24 08:29:48;;;;;;;21.10;13.52;;;;;;;-143.21;47.92;70783.47;5065240;28;20236;-86
2023/08/24 08:32:15;;;;;;;17.00;12.90;;;;;;;-143.21;47.46;70769.59;5055326;28;20198;-86
2023/08/24 08:34:42;;;;;;;16.25;13.02;;;;;;;-143.21;46.93;70755.72;5056489;28;20335;-85
2023/08/24 08:37:10;;;;;;;18.67;12.32;;;;;;;-143.21;46.93;70737.88;5054744;28;20214;-85
2023/08/24 08:39:37;;;;;;;28.73;12.88;;;;;;;-143.21;46.48;70722.03;5054350;28;20193;-86
2023/08/24 08:42:04;;;;;;;15.85;12.15;;;;;;;-143.21;45.96;70710.13;5054211;28;20667;-86
2023/08/24 08:44:32;;;;;;;16.27;12.38;;;;;;;-143.21;45.40;70692.28;5054657;28;20218;-86
2023/08/24 08:47:00;;;;;;;20.55;12.68;;;;;;;-143.21;44.79;70672.47;5054135;28;20263;-87
2023/08/24 08:49:27;;;;;;;21.50;13.15;;;;;;;-143.21;44.66;70650.66;5055007;28;20684;-86
2023/08/24 08:51:54;;;;;;;16.58;12.38;;;;;;;-143.21;44.54;70630.84;5066430;28;20691;-86
2023/08/24 08:54:22;;;;;;;18.02;12.52;;;;;;;-143.21;44.08;70601.09;5055293;28;20657;-85
2023/08/24 08:56:49;;;;;;;18.10;12.52;;;;;;;-143.21;43.06;70565.44;5053827;28;20204;-83
2023/08/24 08:59:17;;;;;;;15.68;12.27;;;;;;;-143.21;42.49;70547.59;5053738;28;20730;-84
2023/08/24 09:01:47;;;;;;;19.05;13.10;;;;;;;-143.21;42.64;70549.56;5053187;28;20317;-86
2023/08/24 09:04:14;;;;;;;16.48;12.93;;;;;;;-143.21;42.78;70529.75;5053152;28;20181;-90
2023/08/24 09:06:42;;;;;;;24.48;13.02;;;;;;;-143.21;42.37;70500.00;5052658;28;20190;-90
2023/08/24 09:09:09;;;;;;;17.50;12.70;;;;;;;-143.21;42.50;70480.19;5053399;28;20220;-90
2023/08/24 09:11:39;;;;;;;17.80;13.63;;;;;;;-143.21;42.25;70452.44;5053419;28;20190;-89
2023/08/24 09:14:06;;;;;;;18.30;12.70;;;;;;;-143.21;41.38;70430.66;5054823;28;20194;-90
2023/08/24 09:16:33;;;;;;;20.67;13.32;;;;;;;-143.21;41.00;70408.84;5054911;28;20205;-90
2023/08/24 09:19:02;;;;;;;17.90;12.88;;;;;;;-143.21;40.99;70398.94;5048016;28;20259;-89
2023/08/24 09:21:29;;;;;;;17.13;12.82;;;;;;;-143.21;41.30;70381.09;5036075;28;20250;-89
2023/08/24 09:23:57;;;;;;;14.88;13.27;;;;;;;-143.21;40.52;70379.09;5025345;28;20237;-89
2023/08/24 09:26:28;;;;;;;16.83;13.57;;;;;;;-143.21;40.25;70365.25;5032721;28;20206;-82
2023/08/24 09:28:57;;;;;;;15.98;14.00;;;;;;;-143.21;40.58;70343.44;5032232;28;20665;-81
2023/08/24 09:31:24;;;;;;;18.05;13.02;;;;;;;-143.21;39.96;70317.66;5032413;28;20206;-81
2023/08/24 09:33:50;;;;;;;20.85;13.20;;;;;;;-143.21;39.64;70285.97;5032270;28;20213;-81
2023/08/24 09:36:18;;;;;;;21.95;13.38;;;;;;;-143.21;39.09;70276.03;5032347;28;20210;-81
2023/08/24 09:38:49;;;;;;;16.38;13.52;;;;;;;-143.21;38.87;70270.09;5032608;28;20199;-81
2023/08/24 09:41:18;;;;;;;17.42;13.57;;;;;;;-143.21;39.03;70248.28;5032438;28;20269;-82
2023/08/24 09:43:44;;;;;;;16.27;13.45;;;;;;;-143.21;38.14;70234.44;5031988;28;20206;-81
2023/08/24 09:46:13;;;;;;;17.10;13.52;;;;;;;-143.21;38.52;70220.56;5032186;28;20206;-81
2023/08/24 09:48:39;;;;;;;14.38;12.80;;;;;;;-143.21;37.86;70198.75;5031602;28;20198;-81
2023/08/24 09:51:07;;;;;;;16.75;13.90;;;;;;;-143.21;37.43;70180.91;5031770;28;20615;-82
2023/08/24 09:53:37;;;;;;;16.17;12.95;;;;;;;-143.21;37.22;70167.03;5031446;28;20197;-83
2023/08/24 09:56:07;;;;;;;16.08;13.68;;;;;;;-143.21;36.94;70159.13;5031995;28;20252;-80
2023/08/24 09:58:35;;;;;;;14.43;12.93;;;;;;;-143.21;37.03;70135.31;5031406;28;20253;-80
2023/08/24 10:01:05;;;;;;;14.95;13.07;;;;;;;-143.21;36.29;70103.63;5031348;28;20218;-81
2023/08/24 10:03:37;;;;;;;15.95;12.13;;;;;;;-143.21;35.93;70099.66;5031549;28;20199;-82
2023/08/24 10:06:05;;;;;;;14.10;11.65;;;;;;;-143.21;35.87;70091.72;5031541;28;20248;-81
2023/08/24 10:08:36;;;;;;;17.90;12.43;;;;;;;-143.21;35.70;70071.91;5031586;28;20194;-83
2023/08/24 10:11:02;;;;;;;15.55;12.13;;;;;;;-143.21;35.24;70067.94;5031798;28;20190;-81
2023/08/24 10:13:37;;;;;;;15.65;11.52;;;;;;;-143.21;35.16;70050.09;5029733;28;20710;-83
2023/08/24 10:16:06;;;;;;;14.15;11.27;;;;;;;-143.21;35.00;70036.25;5032326;28;20198;-81
2023/08/24 10:18:34;;;;;;;12.40;11.20;;;;;;;-143.21;34.67;70010.47;5035412;28;20257;-81
2023/08/24 10:21:02;;;;;;;13.63;10.80;;;;;;;-143.21;33.84;69990.66;5031456;28;20223;-81
2023/08/24 10:23:31;;;;;;;13.13;10.80;;;;;;;-143.21;33.99;69996.59;5031454;28;20568;-81
2023/08/24 10:25:59;;;;;;;12.32;10.93;;;;;;;-143.21;33.48;69982.72;5031379;28;20191;-82
2023/08/24 10:28:27;;;;;;;16.45;11.20;;;;;;;-143.21;32.98;69976.78;5050657;28;20202;-82
2023/08/24 10:30:55;;;;;;;15.30;11.25;;;;;;;-143.21;33.25;69966.88;5051063;28;20190;-81
2023/08/24 10:33:23;;;;;;;15.93;10.95;;;;;;;-143.21;33.01;69953.00;5050242;28;20182;-82
2023/08/24 10:35:52;;;;;;;12.20;10.55;;;;;;;-143.21;32.78;69951.03;5051275;28;20201;-81
2023/08/24 10:38:26;;;;;;;11.35;10.25;;;;;;;-143.21;32.98;69972.81;5052340;28;20257;-82
2023/08/24 10:40:54;;;;;;;16.95;10.43;;;;;;;-143.21;33.17;70000.56;5065338;28;20243;-84
2023/08/24 10:43:21;;;;;;;14.82;10.10;;;;;;;-143.21;33.35;70020.38;5060378;28;20221;-81
2023/08/24 10:45:58;;;;;;;13.70;11.07;;;;;;;-143.21;33.77;70036.25;5051208;28;20193;-82
2023/08/24 10:48:25;;;;;;;14.32;10.68;;;;;;;-143.21;33.85;70050.09;5050830;28;20193;-81
2023/08/24 10:51:20;;;;;;;13.23;10.82;;;;;;;-143.21;34.01;70065.97;5050993;28;20638;-81
2023/08/24 10:53:51;;;;;;;12.13;10.10;;;;;;;-143.21;33.69;70085.78;5047218;28;20215;-82
2023/08/24 10:56:19;;;;;;;16.33;11.40;;;;;;;-143.21;36.13;70123.44;5070986;28;20582;-82
2023/08/24 10:58:47;;;;;;;18.27;10.63;;;;;;;-143.21;37.02;70163.06;5071083;28;20702;-82
2023/08/24 11:01:18;;;;;;;14.20;10.88;;;;;;;-143.21;37.81;70182.91;5067487;28;20731;-82
2023/08/24 11:03:51;;;;;;;17.45;10.70;;;;;;;-143.21;38.40;70208.66;5055274;28;20746;-82
2023/08/24 11:06:21;;;;;;;19.08;11.45;;;;;;;-143.21;38.76;70226.50;5070998;28;20185;-82